createdAt,value
2023-05-05T00:00:15.756Z,101283.38
2023-05-05T00:02:42.594Z,101294.78
2023-05-05T00:05:09.459Z,101286.16
2023-05-05T00:07:36.022Z,101285.34
2023-05-05T00:10:02.708Z,101251.94
2023-05-05T00:12:29.273Z,101279.31
2023-05-05T00:14:56.031Z,101274.13
2023-05-05T00:17:23.055Z,101280.28
2023-05-05T00:19:50.013Z,101272.53
2023-05-05T00:22:16.554Z,101277.88
2023-05-05T00:24:43.051Z,101277.00
2023-05-05T00:27:10.424Z,101255.78
2023-05-05T00:29:36.986Z,101278.38
2023-05-05T00:32:03.506Z,101273.44
2023-05-05T00:34:29.967Z,101272.72
2023-05-05T00:36:56.712Z,101273.72
2023-05-05T00:39:23.319Z,101260.84
2023-05-05T00:41:49.861Z,101275.72
2023-05-05T00:44:16.740Z,101267.16
2023-05-05T00:46:43.460Z,101268.19
2023-05-05T00:49:10.300Z,101263.03
2023-05-05T00:51:36.862Z,101256.97
2023-05-05T00:54:05.335Z,101250.09
2023-05-05T00:56:32.147Z,101262.44
2023-05-05T00:58:59.150Z,101263.47
2023-05-05T01:01:25.781Z,101260.84
2023-05-05T01:03:52.534Z,101256.69
2023-05-05T01:06:39.932Z,101276.63
2023-05-05T01:09:16.997Z,101281.06
2023-05-05T01:11:56.337Z,101267.97
2023-05-05T01:14:46.048Z,101259.88
2023-05-05T01:17:21.901Z,101260.91
2023-05-05T01:20:40.884Z,101267.84
2023-05-05T01:23:09.918Z,101259.38
2023-05-05T01:26:18.128Z,101266.44
2023-05-05T01:29:07.648Z,101258.69
2023-05-05T01:31:52.297Z,101259.81
2023-05-05T01:34:26.180Z,101251.22
2023-05-05T01:37:04.755Z,101252.94
2023-05-05T01:39:35.005Z,101242.81
2023-05-05T01:42:08.169Z,101263.69
2023-05-05T01:44:36.944Z,101240.59
2023-05-05T01:47:05.025Z,101250.84
2023-05-05T01:49:34.251Z,101246.59
2023-05-05T01:52:03.699Z,101236.31
2023-05-05T01:54:32.899Z,101241.81
2023-05-05T01:56:59.796Z,101246.94
2023-05-05T01:59:27.583Z,101247.03
2023-05-05T02:01:56.305Z,101238.56
2023-05-05T02:04:24.282Z,101236.78
2023-05-05T02:06:53.382Z,101221.41
2023-05-05T02:09:21.554Z,101237.81
2023-05-05T02:11:48.892Z,101231.88
2023-05-05T02:14:18.894Z,101245.03
2023-05-05T02:16:46.798Z,101239.03
2023-05-05T02:19:15.098Z,101239.13
2023-05-05T02:21:42.053Z,101229.63
2023-05-05T02:24:08.867Z,101250.56
2023-05-05T02:26:39.258Z,101239.50
2023-05-05T02:29:10.380Z,101247.31
2023-05-05T02:31:43.390Z,101244.72
2023-05-05T02:34:11.111Z,101209.38
2023-05-05T02:36:40.680Z,101244.69
2023-05-05T02:39:24.849Z,101256.81
2023-05-05T02:41:54.194Z,101245.44
2023-05-05T02:44:24.637Z,101244.47
2023-05-05T02:46:51.234Z,101226.25
2023-05-05T02:49:17.791Z,101245.16
2023-05-05T02:51:44.235Z,101240.66
2023-05-05T02:54:11.042Z,101251.06
2023-05-05T02:56:42.731Z,101249.13
2023-05-05T02:59:31.052Z,101256.03
2023-05-05T03:02:10.421Z,101218.91
2023-05-05T03:04:53.029Z,101247.09
2023-05-05T03:07:27.822Z,101258.28
2023-05-05T03:10:06.420Z,101250.38
2023-05-05T03:12:56.627Z,101256.25
2023-05-05T03:15:28.236Z,101256.06
2023-05-05T03:17:56.730Z,101238.00
2023-05-05T03:20:24.140Z,101242.91
2023-05-05T03:22:51.708Z,101249.69
2023-05-05T03:25:18.297Z,101248.84
2023-05-05T03:27:44.767Z,101232.34
2023-05-05T03:30:12.347Z,101234.81
2023-05-05T03:32:38.883Z,101236.41
2023-05-05T03:35:05.854Z,101230.44
2023-05-05T03:37:32.393Z,101244.19
2023-05-05T03:39:58.998Z,101245.03
2023-05-05T03:42:25.469Z,101249.34
2023-05-05T03:44:55.027Z,101228.56
2023-05-05T03:47:24.547Z,101234.50
2023-05-05T03:49:51.160Z,101235.34
2023-05-05T03:52:17.753Z,101231.88
2023-05-05T03:54:46.053Z,101216.38
2023-05-05T03:57:12.616Z,101235.16
2023-05-05T03:59:39.174Z,101219.69
2023-05-05T04:02:05.771Z,101237.59
2023-05-05T04:04:32.491Z,101224.75
2023-05-05T04:06:59.006Z,101244.44
2023-05-05T04:09:25.506Z,101235.03
2023-05-05T04:11:52.068Z,101252.13
2023-05-05T04:14:18.666Z,101248.59
2023-05-05T04:16:45.149Z,101243.34
2023-05-05T04:19:13.095Z,101237.38
2023-05-05T04:21:39.562Z,101237.50
2023-05-05T04:24:06.278Z,101245.25
2023-05-05T04:26:32.799Z,101247.16
2023-05-05T04:28:59.316Z,101242.19
2023-05-05T04:31:25.865Z,101232.97
2023-05-05T04:33:52.334Z,101247.69
2023-05-05T04:36:19.205Z,101254.66
2023-05-05T04:38:45.840Z,101246.25
2023-05-05T04:41:12.458Z,101256.75
2023-05-05T04:43:39.165Z,101257.38
2023-05-05T04:46:05.780Z,101256.53
2023-05-05T04:48:32.479Z,101257.41
2023-05-05T04:51:04.566Z,101262.72
2023-05-05T04:53:31.026Z,101265.41
2023-05-05T04:55:57.712Z,101252.44
2023-05-05T04:58:24.173Z,101254.94
2023-05-05T05:00:50.762Z,101253.22
2023-05-05T05:03:17.468Z,101248.03
2023-05-05T05:05:44.055Z,101239.38
2023-05-05T05:08:11.568Z,101265.22
2023-05-05T05:10:38.118Z,101257.31
2023-05-05T05:13:04.669Z,101255.66
2023-05-05T05:15:31.266Z,101246.78
2023-05-05T05:17:57.878Z,101258.69
2023-05-05T05:20:24.599Z,101265.50
2023-05-05T05:22:51.072Z,101265.34
2023-05-05T05:25:17.642Z,101273.16
2023-05-05T05:27:44.761Z,101268.75
2023-05-05T05:30:13.503Z,101266.22
2023-05-05T05:32:40.194Z,101262.59
2023-05-05T05:35:07.047Z,101279.81
2023-05-05T05:37:36.762Z,101272.84
2023-05-05T05:40:05.220Z,101291.75
2023-05-05T05:42:31.809Z,101290.69
2023-05-05T05:45:08.440Z,101266.63
2023-05-05T05:47:37.803Z,101257.09
2023-05-05T05:50:04.958Z,101278.31
2023-05-05T05:52:31.439Z,101265.41
2023-05-05T05:54:57.974Z,101291.06
2023-05-05T05:57:24.616Z,101282.41
2023-05-05T05:59:51.205Z,101289.16
2023-05-05T06:02:17.803Z,101264.84
2023-05-05T06:04:44.405Z,101292.41
2023-05-05T06:07:10.903Z,101285.53
2023-05-05T06:09:37.591Z,101295.75
2023-05-05T06:12:04.290Z,101288.69
2023-05-05T06:14:33.088Z,101278.19
2023-05-05T06:16:59.598Z,101284.94
2023-05-05T06:19:35.828Z,101293.41
2023-05-05T06:22:02.547Z,101288.94
2023-05-05T06:24:29.310Z,101272.41
2023-05-05T06:26:55.929Z,101295.56
2023-05-05T06:29:22.463Z,101283.38
2023-05-05T06:32:01.884Z,101284.88
2023-05-05T06:34:28.385Z,101283.72
2023-05-05T06:37:06.661Z,101267.28
2023-05-05T06:39:33.150Z,101260.25
2023-05-05T06:41:59.615Z,101269.16
2023-05-05T06:44:26.139Z,101284.13
2023-05-05T06:46:59.554Z,101264.88
2023-05-05T06:49:26.347Z,101292.00
2023-05-05T06:51:52.814Z,101287.44
2023-05-05T06:54:19.431Z,101288.66
2023-05-05T06:56:46.606Z,101285.81
2023-05-05T06:59:16.878Z,101299.28
2023-05-05T07:01:43.386Z,101318.94
2023-05-05T07:04:10.363Z,101298.97
2023-05-05T07:06:36.925Z,101312.91
2023-05-05T07:09:04.341Z,101294.38
2023-05-05T07:11:30.884Z,101299.63
2023-05-05T07:13:57.408Z,101312.84
2023-05-05T07:16:25.399Z,101322.06
2023-05-05T07:18:54.453Z,101311.91
2023-05-05T07:21:21.067Z,101316.63
2023-05-05T07:23:47.820Z,101328.88
2023-05-05T07:26:15.596Z,101332.28
2023-05-05T07:28:45.385Z,101325.63
2023-05-05T07:31:11.991Z,101331.69
2023-05-05T07:33:38.651Z,101341.13
2023-05-05T07:36:05.723Z,101330.59
2023-05-05T07:38:37.138Z,101316.88
2023-05-05T07:41:03.665Z,101306.22
2023-05-05T07:43:30.148Z,101327.59
2023-05-05T07:45:56.806Z,101334.44
2023-05-05T07:48:23.422Z,101337.75
2023-05-05T07:50:50.047Z,101330.81
2023-05-05T07:53:16.651Z,101336.91
2023-05-05T07:55:43.251Z,101339.84
2023-05-05T07:58:11.328Z,101337.88
2023-05-05T08:00:38.491Z,101324.88
2023-05-05T08:03:06.286Z,101327.44
2023-05-05T08:05:34.309Z,101332.72
2023-05-05T08:08:00.933Z,101340.56
2023-05-05T08:10:28.028Z,101351.13
2023-05-05T08:12:54.928Z,101337.16
2023-05-05T08:15:21.648Z,101325.41
2023-05-05T08:17:50.307Z,101352.97
2023-05-05T08:20:18.328Z,101346.91
2023-05-05T08:22:47.952Z,101338.00
2023-05-05T08:25:14.658Z,101354.16
2023-05-05T08:27:42.520Z,101335.31
2023-05-05T08:30:11.136Z,101345.09
2023-05-05T08:32:38.831Z,101337.13
2023-05-05T08:35:06.564Z,101338.97
2023-05-05T08:37:33.593Z,101346.66
2023-05-05T08:40:00.478Z,101349.53
2023-05-05T08:42:37.115Z,101367.81
2023-05-05T08:45:09.721Z,101358.97
2023-05-05T08:47:38.173Z,101348.69
2023-05-05T08:50:08.021Z,101353.03
2023-05-05T08:55:25.731Z,101336.13
2023-05-05T08:57:57.024Z,101366.22
2023-05-05T09:00:29.981Z,101356.63
2023-05-05T09:02:58.234Z,101333.13
2023-05-05T09:05:26.520Z,101367.25
2023-05-05T09:07:58.241Z,101333.22
2023-05-05T09:10:31.151Z,101362.06
2023-05-05T09:12:58.922Z,101339.97
2023-05-05T09:15:46.986Z,101305.72
2023-05-05T09:18:19.257Z,101338.22
2023-05-05T09:20:52.026Z,101354.22
2023-05-05T09:23:20.245Z,101372.72
2023-05-05T09:26:04.662Z,101352.47
2023-05-05T09:28:32.097Z,101360.75
2023-05-05T09:31:16.511Z,101359.47
2023-05-05T09:33:43.504Z,101376.38
2023-05-05T09:36:10.137Z,101359.03
2023-05-05T09:38:38.057Z,101361.25
2023-05-05T09:41:12.856Z,101344.94
2023-05-05T09:43:52.413Z,101360.97
2023-05-05T09:46:19.161Z,101367.41
2023-05-05T09:48:45.953Z,101348.59
2023-05-05T09:51:12.503Z,101355.72
2023-05-05T09:53:40.926Z,101363.25
2023-05-05T09:56:08.344Z,101353.47
2023-05-05T09:58:46.487Z,101342.78
2023-05-05T10:01:23.723Z,101325.84
2023-05-05T10:04:31.753Z,101350.16
2023-05-05T10:06:59.118Z,101334.78
2023-05-05T10:09:30.381Z,101306.22
2023-05-05T10:12:03.691Z,101333.72
2023-05-05T10:14:34.243Z,101301.56
2023-05-05T10:17:02.901Z,101353.41
2023-05-05T10:19:39.378Z,101318.91
2023-05-05T10:22:10.779Z,101317.91
2023-05-05T10:24:57.960Z,101305.91
2023-05-05T10:27:30.367Z,101339.66
2023-05-05T10:30:04.037Z,101329.28
2023-05-05T10:33:30.076Z,101321.69
2023-05-05T10:36:04.349Z,101309.25
2023-05-05T10:38:31.882Z,101305.03
2023-05-05T10:41:03.427Z,101328.88
2023-05-05T10:43:31.423Z,101324.09
2023-05-05T10:46:01.590Z,101322.13
2023-05-05T10:48:32.818Z,101291.59
2023-05-05T10:51:23.949Z,101305.94
2023-05-05T10:54:17.210Z,101314.41
2023-05-05T10:56:45.334Z,101315.50
2023-05-05T10:59:36.824Z,101313.75
2023-05-05T11:02:21.086Z,101290.13
2023-05-05T11:05:22.593Z,101310.75
2023-05-05T11:07:56.324Z,101306.22
2023-05-05T11:10:23.742Z,101295.91
2023-05-05T11:13:03.007Z,101313.84
2023-05-05T11:15:29.859Z,101324.44
2023-05-05T11:18:06.668Z,101303.81
2023-05-05T11:20:43.612Z,101310.63
2023-05-05T11:23:13.992Z,101303.22
2023-05-05T11:25:44.258Z,101316.38
2023-05-05T11:28:16.490Z,101316.50
2023-05-05T11:30:55.861Z,101306.50
2023-05-05T11:33:26.422Z,101308.09
2023-05-05T11:36:09.052Z,101300.75
2023-05-05T11:38:54.582Z,101300.56
2023-05-05T11:41:33.371Z,101296.94
2023-05-05T11:44:19.929Z,101295.59
2023-05-05T11:46:52.787Z,101294.63
2023-05-05T11:49:36.686Z,101292.50
2023-05-05T11:52:09.300Z,101300.59
2023-05-05T11:54:38.091Z,101306.97
2023-05-05T11:57:08.687Z,101309.84
2023-05-05T11:59:37.329Z,101308.44
2023-05-05T12:02:04.864Z,101289.22
2023-05-05T12:04:31.973Z,101294.63
2023-05-05T12:06:59.376Z,101291.75
2023-05-05T12:09:26.945Z,101275.31
2023-05-05T12:11:58.254Z,101300.88
2023-05-05T12:14:27.546Z,101284.91
2023-05-05T12:16:58.385Z,101300.41
2023-05-05T12:19:30.085Z,101299.13
2023-05-05T12:21:57.014Z,101285.94
2023-05-05T12:24:23.721Z,101288.63
2023-05-05T12:26:50.342Z,101282.00
2023-05-05T12:29:29.163Z,101268.00
2023-05-05T12:31:57.921Z,101268.31
2023-05-05T12:34:24.628Z,101270.53
2023-05-05T12:36:51.231Z,101289.78
2023-05-05T12:39:17.873Z,101296.38
2023-05-05T12:41:46.850Z,101264.06
2023-05-05T12:44:13.850Z,101282.13
2023-05-05T12:46:55.939Z,101269.00
2023-05-05T12:49:22.487Z,101271.06
2023-05-05T12:51:56.654Z,101270.25
2023-05-05T12:54:25.089Z,101276.22
2023-05-05T12:56:51.677Z,101268.06
2023-05-05T12:59:29.965Z,101241.47
2023-05-05T13:02:00.999Z,101255.63
2023-05-05T13:04:28.479Z,101253.09
2023-05-05T13:07:31.485Z,101269.31
2023-05-05T13:10:13.418Z,101233.75
2023-05-05T13:12:39.960Z,101239.50
2023-05-05T13:15:07.491Z,101247.13
2023-05-05T13:17:34.891Z,101249.28
2023-05-05T13:20:26.056Z,101228.00
2023-05-05T13:22:52.615Z,101247.91
2023-05-05T13:25:21.805Z,101241.81
2023-05-05T13:27:49.461Z,101231.41
2023-05-05T13:30:16.116Z,101237.97
2023-05-05T13:32:42.793Z,101213.16
2023-05-05T13:35:13.320Z,101244.22
2023-05-05T13:37:46.066Z,101220.28
2023-05-05T13:40:17.852Z,101232.50
2023-05-05T13:42:44.437Z,101227.34
2023-05-05T13:45:12.189Z,101242.41
2023-05-05T13:47:38.821Z,101225.56
2023-05-05T13:50:06.240Z,101239.28
2023-05-05T13:52:33.018Z,101237.47
2023-05-05T13:55:00.844Z,101249.44
2023-05-05T13:57:27.604Z,101243.34
2023-05-05T13:59:54.178Z,101243.47
2023-05-05T14:02:20.792Z,101232.38
2023-05-05T14:04:47.308Z,101229.38
2023-05-05T14:07:13.791Z,101232.53
2023-05-05T14:09:42.660Z,101239.53
2023-05-05T14:12:11.258Z,101235.78
2023-05-05T14:14:37.826Z,101233.03
2023-05-05T14:17:06.765Z,101226.09
2023-05-05T14:19:43.047Z,101232.72
2023-05-05T14:22:09.659Z,101222.69
2023-05-05T14:24:36.289Z,101244.59
2023-05-05T14:27:05.416Z,101237.53
2023-05-05T14:29:31.877Z,101235.31
2023-05-05T14:31:58.648Z,101221.69
2023-05-05T14:34:25.446Z,101221.09
2023-05-05T14:36:51.923Z,101218.44
2023-05-05T14:39:18.479Z,101220.75
2023-05-05T14:41:44.938Z,101216.09
2023-05-05T14:44:11.394Z,101215.56
2023-05-05T14:46:38.006Z,101217.53
2023-05-05T14:49:04.538Z,101223.66
2023-05-05T14:51:32.035Z,101223.13
2023-05-05T14:53:58.754Z,101220.41
2023-05-05T14:56:26.514Z,101222.59
2023-05-05T14:58:53.170Z,101212.09
2023-05-05T15:01:27.120Z,101201.38
2023-05-05T15:03:54.013Z,101197.81
2023-05-05T15:06:20.785Z,101203.16
2023-05-05T15:08:49.640Z,101204.16
2023-05-05T15:11:16.159Z,101198.13
2023-05-05T15:13:42.664Z,101198.88
2023-05-05T15:16:09.226Z,101192.16
2023-05-05T15:18:36.447Z,101194.19
2023-05-05T15:21:03.550Z,101205.44
2023-05-05T15:23:30.140Z,101209.72
2023-05-05T15:25:59.573Z,101195.91
2023-05-05T15:28:26.080Z,101195.44
2023-05-05T15:30:52.923Z,101197.75
2023-05-05T15:33:19.531Z,101193.75
2023-05-05T15:35:46.166Z,101204.59
2023-05-05T15:38:12.776Z,101188.63
2023-05-05T15:40:39.281Z,101206.25
2023-05-05T15:43:06.814Z,101205.22
2023-05-05T15:45:33.503Z,101220.75
2023-05-05T15:48:01.228Z,101207.06
2023-05-05T15:50:30.066Z,101221.06
2023-05-05T15:52:57.297Z,101221.66
2023-05-05T15:55:26.839Z,101220.78
2023-05-05T15:57:54.027Z,101216.53
2023-05-05T16:00:20.945Z,101214.53
2023-05-05T16:02:47.551Z,101198.72
2023-05-05T16:05:16.595Z,101216.06
2023-05-05T16:07:43.081Z,101208.28
2023-05-05T16:10:10.173Z,101197.53
2023-05-05T16:12:36.776Z,101183.56
2023-05-05T16:15:03.473Z,101212.50
2023-05-05T16:17:29.993Z,101211.03
2023-05-05T16:19:56.578Z,101215.34
2023-05-05T16:22:23.140Z,101213.19
2023-05-05T16:24:49.631Z,101219.59
2023-05-05T16:27:16.458Z,101226.03
2023-05-05T16:29:43.012Z,101210.28
2023-05-05T16:32:11.966Z,101215.22
2023-05-05T16:34:38.475Z,101216.72
2023-05-05T16:37:05.028Z,101220.34
2023-05-05T16:39:33.032Z,101232.25
2023-05-05T16:41:59.682Z,101214.34
2023-05-05T16:44:26.288Z,101202.16
2023-05-05T16:46:52.861Z,101216.66
2023-05-05T16:49:19.417Z,101215.09
2023-05-05T16:51:46.021Z,101216.72
2023-05-05T16:54:12.568Z,101215.03
2023-05-05T16:56:39.058Z,101224.38
2023-05-05T16:59:05.735Z,101208.53
2023-05-05T17:01:32.393Z,101217.19
2023-05-05T17:04:02.245Z,101217.25
2023-05-05T17:06:32.940Z,101203.25
2023-05-05T17:08:59.784Z,101195.09
2023-05-05T17:11:26.765Z,101201.03
2023-05-05T17:13:53.329Z,101214.34
2023-05-05T17:16:19.884Z,101221.69
2023-05-05T17:18:46.364Z,101215.69
2023-05-05T17:21:12.851Z,101209.78
2023-05-05T17:23:39.356Z,101193.91
2023-05-05T17:26:05.873Z,101202.72
2023-05-05T17:28:32.710Z,101207.91
2023-05-05T17:31:00.031Z,101217.00
2023-05-05T17:33:26.564Z,101197.38
2023-05-05T17:35:54.326Z,101198.34
2023-05-05T17:38:20.945Z,101191.06
2023-05-05T17:40:47.545Z,101218.81
2023-05-05T17:43:14.160Z,101220.88
2023-05-05T17:45:43.129Z,101192.84
2023-05-05T17:48:09.652Z,101217.19
2023-05-05T17:50:36.388Z,101212.34
2023-05-05T17:53:03.519Z,101223.19
2023-05-05T17:55:30.210Z,101219.44
2023-05-05T17:57:57.375Z,101228.53
2023-05-05T18:00:23.942Z,101227.53
2023-05-05T18:02:50.565Z,101241.63
2023-05-05T18:05:17.327Z,101216.69
2023-05-05T18:07:43.799Z,101236.09
2023-05-05T18:10:13.100Z,101217.69
2023-05-05T18:12:39.766Z,101240.97
2023-05-05T18:15:07.086Z,101226.69
2023-05-05T18:17:33.821Z,101227.22
2023-05-05T18:20:00.350Z,101249.75
2023-05-05T18:22:26.915Z,101236.69
2023-05-05T18:24:58.947Z,101250.25
2023-05-05T18:27:26.956Z,101241.84
2023-05-05T18:29:53.761Z,101257.88
2023-05-05T18:32:20.437Z,101255.25
2023-05-05T18:34:47.082Z,101247.31
2023-05-05T18:37:13.589Z,101254.78
2023-05-05T18:39:43.284Z,101268.16
2023-05-05T18:42:12.763Z,101273.34
2023-05-05T18:44:39.835Z,101270.38
2023-05-05T18:47:06.825Z,101264.94
2023-05-05T18:49:33.880Z,101277.56
2023-05-05T18:52:00.535Z,101282.16
2023-05-05T18:54:36.272Z,101272.25
2023-05-05T18:57:04.055Z,101292.81
2023-05-05T18:59:30.716Z,101270.66
2023-05-05T19:01:59.564Z,101286.50
2023-05-05T19:04:31.202Z,101289.28
2023-05-05T19:06:59.082Z,101277.09
2023-05-05T19:09:25.924Z,101280.03
2023-05-05T19:11:52.545Z,101280.97
2023-05-05T19:14:19.306Z,101286.34
2023-05-05T19:16:54.267Z,101300.75
2023-05-05T19:19:48.486Z,101277.06
2023-05-05T19:22:17.587Z,101298.63
2023-05-05T19:24:46.927Z,101280.63
2023-05-05T19:27:16.428Z,101296.28
2023-05-05T19:29:53.175Z,101287.44
2023-05-05T19:32:20.891Z,101328.22
2023-05-05T19:34:49.392Z,101312.94
2023-05-05T19:37:18.596Z,101314.22
2023-05-05T19:39:45.747Z,101328.28
2023-05-05T19:42:12.581Z,101315.81
2023-05-05T19:44:39.030Z,101341.91
2023-05-05T19:47:05.608Z,101328.47
2023-05-05T19:49:32.136Z,101321.84
2023-05-05T19:51:58.981Z,101337.53
2023-05-05T19:54:26.029Z,101314.53
2023-05-05T19:56:54.552Z,101320.03
2023-05-05T19:59:21.948Z,101322.28
2023-05-05T20:01:48.432Z,101348.34
2023-05-05T20:04:15.311Z,101347.75
2023-05-05T20:06:41.790Z,101345.28
2023-05-05T20:09:09.962Z,101343.06
2023-05-05T20:11:36.879Z,101341.59
2023-05-05T20:14:03.555Z,101349.63
2023-05-05T20:16:30.194Z,101340.59
2023-05-05T20:18:56.837Z,101343.59
2023-05-05T20:21:23.379Z,101336.00
2023-05-05T20:23:49.984Z,101360.25
2023-05-05T20:26:16.984Z,101344.91
2023-05-05T20:28:45.380Z,101344.13
2023-05-05T20:31:14.172Z,101353.94
2023-05-05T20:33:40.850Z,101344.50
2023-05-05T20:36:07.598Z,101349.03
2023-05-05T20:38:34.230Z,101351.75
2023-05-05T20:41:00.774Z,101347.41
2023-05-05T20:43:27.505Z,101342.50
2023-05-05T20:45:53.965Z,101353.72
2023-05-05T20:48:22.141Z,101347.91
2023-05-05T20:50:48.874Z,101349.19
2023-05-05T20:53:18.803Z,101342.50
2023-05-05T20:55:45.295Z,101345.97
2023-05-05T20:58:11.787Z,101328.06
2023-05-05T21:00:38.388Z,101325.72
2023-05-05T21:03:05.128Z,101345.09
2023-05-05T21:05:35.503Z,101347.88
2023-05-05T21:08:02.015Z,101332.44
2023-05-05T21:10:29.082Z,101354.06
2023-05-05T21:12:55.763Z,101354.38
2023-05-05T21:15:22.459Z,101362.41
2023-05-05T21:17:49.070Z,101360.88
2023-05-05T21:20:16.389Z,101348.09
2023-05-05T21:22:43.095Z,101368.16
2023-05-05T21:25:17.042Z,101376.09
2023-05-05T21:27:44.084Z,101359.94
2023-05-05T21:30:11.923Z,101373.97
2023-05-05T21:32:40.043Z,101385.34
2023-05-05T21:35:08.019Z,101375.06
2023-05-05T21:37:36.472Z,101376.25
2023-05-05T21:40:09.404Z,101382.28
2023-05-05T21:42:36.354Z,101378.00
2023-05-05T21:45:03.102Z,101379.94
2023-05-05T21:47:29.622Z,101373.28
2023-05-05T21:49:57.401Z,101354.50
2023-05-05T21:52:23.870Z,101385.50
2023-05-05T21:54:50.511Z,101381.34
2023-05-05T21:57:16.944Z,101388.28
2023-05-05T21:59:46.567Z,101387.56
2023-05-05T22:02:13.066Z,101377.19
2023-05-05T22:04:39.552Z,101390.13
2023-05-05T22:07:06.257Z,101381.56
2023-05-05T22:09:32.926Z,101379.91
2023-05-05T22:11:59.376Z,101378.94
2023-05-05T22:14:25.960Z,101391.09
2023-05-05T22:16:52.435Z,101388.44
2023-05-05T22:19:18.879Z,101379.69
2023-05-05T22:21:45.484Z,101351.41
2023-05-05T22:24:12.057Z,101378.03
2023-05-05T22:26:42.943Z,101364.38
2023-05-05T22:29:10.240Z,101376.44
2023-05-05T22:31:37.236Z,101361.03
2023-05-05T22:34:03.946Z,101361.78
2023-05-05T22:36:31.428Z,101371.47
2023-05-05T22:38:57.912Z,101361.97
2023-05-05T22:41:24.769Z,101365.56
2023-05-05T22:43:51.329Z,101367.34
2023-05-05T22:46:17.844Z,101357.13
2023-05-05T22:48:44.379Z,101353.88
2023-05-05T22:51:11.281Z,101350.63
2023-05-05T22:53:38.745Z,101370.56
2023-05-05T22:56:06.272Z,101364.63
2023-05-05T22:58:32.762Z,101343.19
2023-05-05T23:00:59.441Z,101363.94
2023-05-05T23:03:26.023Z,101360.63
2023-05-05T23:05:52.651Z,101350.47
2023-05-05T23:08:20.293Z,101361.75
2023-05-05T23:10:46.770Z,101359.28
2023-05-05T23:13:13.449Z,101362.03
2023-05-05T23:15:40.934Z,101364.69
2023-05-05T23:18:07.494Z,101367.41
2023-05-05T23:20:34.030Z,101352.94
2023-05-05T23:23:00.809Z,101377.16
2023-05-05T23:25:27.258Z,101371.13
2023-05-05T23:27:53.788Z,101365.97
2023-05-05T23:30:20.654Z,101356.66
2023-05-05T23:32:47.167Z,101369.66
2023-05-05T23:35:13.787Z,101354.25
2023-05-05T23:37:40.320Z,101375.03
2023-05-05T23:40:07.422Z,101368.19
2023-05-05T23:42:33.889Z,101365.56
2023-05-05T23:45:00.989Z,101361.28
2023-05-05T23:47:27.571Z,101343.25
2023-05-05T23:49:54.113Z,101366.56
2023-05-05T23:52:20.910Z,101344.97
2023-05-05T23:54:47.559Z,101351.09
2023-05-05T23:57:14.077Z,101358.00
2023-05-05T23:59:40.772Z,101366.75
